createdAt,value
2023-01-22T00:04:53.352Z,19.43
2023-01-22T00:09:58.189Z,18.40
2023-01-22T00:15:01.551Z,18.37
2023-01-22T00:20:06.044Z,18.00
2023-01-22T00:25:13.024Z,21.17
2023-01-22T00:30:17.039Z,20.37
2023-01-22T00:35:20.647Z,19.67
2023-01-22T00:40:25.405Z,16.93
2023-01-22T00:50:31.950Z,17.07
2023-01-22T00:55:36.909Z,25.57
2023-01-22T01:00:40.390Z,19.33
2023-01-22T01:05:43.942Z,23.00
2023-01-22T01:10:48.958Z,20.43
2023-01-22T01:15:59.487Z,23.63
2023-01-22T01:21:04.436Z,21.67
2023-01-22T01:26:10.532Z,23.03
2023-01-22T01:31:16.255Z,22.63
2023-01-22T01:36:40.353Z,20.33
2023-01-22T01:41:46.781Z,21.57
2023-01-22T01:46:52.854Z,24.63
2023-01-22T01:51:59.592Z,22.90
2023-01-22T01:57:09.980Z,22.53
2023-01-22T02:02:14.111Z,19.67
2023-01-22T02:07:17.596Z,20.60
2023-01-22T02:12:22.466Z,21.93
2023-01-22T02:17:25.779Z,23.67
2023-01-22T02:22:33.573Z,20.43
2023-01-22T02:27:37.155Z,22.73
2023-01-22T02:32:40.495Z,24.80
2023-01-22T02:37:45.202Z,25.23
2023-01-22T02:47:51.673Z,21.80
2023-01-22T02:52:56.554Z,22.87
2023-01-22T02:58:00.025Z,24.20
2023-01-22T03:03:07.973Z,27.57
2023-01-22T03:08:12.771Z,23.40
2023-01-22T03:13:33.747Z,25.13
2023-01-22T03:18:54.547Z,28.43
2023-01-22T03:23:59.366Z,25.40
2023-01-22T03:29:02.676Z,27.03
2023-01-22T03:34:06.114Z,23.53
2023-01-22T03:39:10.949Z,28.03
2023-01-22T03:44:14.475Z,25.87
2023-01-22T03:49:18.345Z,30.43
2023-01-22T03:54:23.115Z,32.03
2023-01-22T04:04:29.520Z,28.63
2023-01-22T04:09:34.221Z,25.23
2023-01-22T04:19:40.665Z,26.00
2023-01-22T04:24:45.522Z,25.63
2023-01-22T04:29:48.961Z,29.17
2023-01-22T04:34:52.281Z,30.93
2023-01-22T04:39:57.017Z,28.10
2023-01-22T04:50:03.492Z,31.03
2023-01-22T04:55:09.997Z,24.93
2023-01-22T05:00:14.764Z,32.27
2023-01-22T05:05:18.503Z,30.90
2023-01-22T05:10:23.678Z,31.63
2023-01-22T05:15:27.084Z,31.37
2023-01-22T05:20:30.470Z,28.37
2023-01-22T05:25:35.159Z,29.37
2023-01-22T05:35:41.681Z,26.20
2023-01-22T05:40:47.582Z,32.97
2023-01-22T05:45:51.091Z,32.00
2023-01-22T05:50:54.596Z,31.27
2023-01-22T05:56:03.091Z,27.90
2023-01-22T06:01:07.152Z,27.50
2023-01-22T06:06:13.572Z,32.50
2023-01-22T06:11:19.028Z,30.67
2023-01-22T06:16:22.555Z,31.07
2023-01-22T06:21:25.888Z,58.07
2023-01-22T06:26:30.713Z,32.57
2023-01-22T06:31:34.578Z,38.27
2023-01-22T06:36:38.094Z,35.33
2023-01-22T06:41:42.922Z,36.15
2023-01-22T06:51:49.641Z,32.20
2023-01-22T06:56:54.332Z,27.53
2023-01-22T07:01:57.729Z,27.27
2023-01-22T07:07:01.056Z,32.87
2023-01-22T07:12:05.935Z,32.13
2023-01-22T07:22:13.929Z,29.93
2023-01-22T07:27:18.712Z,27.43
2023-01-22T07:37:25.316Z,29.92
2023-01-22T07:42:30.162Z,32.30
2023-01-22T07:52:36.766Z,34.28
2023-01-22T07:57:41.492Z,29.48
2023-01-22T08:02:44.936Z,30.40
2023-01-22T08:07:48.400Z,28.60
2023-01-22T08:12:53.147Z,27.33
2023-01-22T08:17:56.601Z,28.67
2023-01-22T08:23:00.591Z,31.27
2023-01-22T08:28:06.769Z,27.83
2023-01-22T08:33:10.963Z,30.23
2023-01-22T08:38:14.446Z,29.90
2023-01-22T08:43:19.465Z,31.50
2023-01-22T08:53:43.693Z,30.83
2023-01-22T08:58:51.389Z,33.65
2023-01-22T09:03:55.241Z,31.17
2023-01-22T09:08:59.581Z,34.33
2023-01-22T09:14:04.524Z,34.38
2023-01-22T09:24:11.450Z,29.05
2023-01-22T09:29:16.301Z,29.48
2023-01-22T09:39:22.885Z,24.73
2023-01-22T09:44:35.607Z,30.83
2023-01-22T09:49:47.793Z,29.70
2023-01-22T09:54:51.122Z,31.23
2023-01-22T09:59:58.417Z,32.92
2023-01-22T10:05:05.463Z,24.90
2023-01-22T10:10:22.909Z,28.67
2023-01-22T10:15:27.833Z,33.28
2023-01-22T10:25:35.322Z,27.85
2023-01-22T10:30:48.077Z,29.20
2023-01-22T10:35:53.600Z,28.65
2023-01-22T10:40:59.901Z,29.27
2023-01-22T10:46:08.200Z,26.40
2023-01-22T10:51:16.789Z,28.40
2023-01-22T10:56:29.946Z,28.92
2023-01-22T11:01:38.090Z,28.45
2023-01-22T11:06:45.767Z,30.33
2023-01-22T11:11:56.403Z,32.17
2023-01-22T11:17:07.500Z,28.25
2023-01-22T11:22:23.356Z,26.75
2023-01-22T11:27:52.975Z,29.85
2023-01-22T11:33:07.691Z,31.50
2023-01-22T11:38:19.072Z,30.25
2023-01-22T11:43:32.614Z,29.13
2023-01-22T11:48:54.122Z,30.73
2023-01-22T11:54:08.016Z,32.85
2023-01-22T11:59:15.978Z,32.63
2023-01-22T12:04:53.791Z,34.10
2023-01-22T12:10:15.007Z,28.38
2023-01-22T12:15:34.821Z,32.83
2023-01-22T12:20:58.759Z,30.98
2023-01-22T12:26:05.705Z,30.58
2023-01-22T12:31:15.599Z,34.65
2023-01-22T12:36:24.232Z,30.13
2023-01-22T12:41:47.535Z,32.35
2023-01-22T12:47:01.240Z,34.63
2023-01-22T12:52:06.299Z,29.70
2023-01-22T12:57:24.327Z,36.53
2023-01-22T13:02:39.325Z,33.08
2023-01-22T13:12:49.746Z,34.90
2023-01-22T13:18:06.668Z,35.65
2023-01-22T13:23:15.379Z,41.63
2023-01-22T13:28:19.351Z,38.67
2023-01-22T13:33:23.432Z,37.87
2023-01-22T13:38:30.001Z,36.70
2023-01-22T13:43:36.347Z,35.47
2023-01-22T13:48:39.796Z,32.22
2023-01-22T13:53:50.521Z,43.47
2023-01-22T13:59:07.190Z,40.58
2023-01-22T14:04:27.711Z,39.58
2023-01-22T14:09:34.039Z,36.58
2023-01-22T14:14:41.408Z,37.15
2023-01-22T14:19:44.899Z,41.50
2023-01-22T14:24:52.636Z,44.22
2023-01-22T14:29:56.699Z,46.95
2023-01-22T14:35:01.833Z,40.97
2023-01-22T14:40:08.704Z,38.40
2023-01-22T14:45:14.263Z,39.78
2023-01-22T14:50:19.639Z,38.25
2023-01-22T14:55:24.900Z,36.97
2023-01-22T15:00:29.882Z,44.53
2023-01-22T15:05:35.587Z,41.22
2023-01-22T15:10:40.785Z,35.75
2023-01-22T15:20:47.371Z,39.38
2023-01-22T15:26:00.042Z,36.65
2023-01-22T15:31:08.083Z,37.88
2023-01-22T15:36:11.542Z,38.30
2023-01-22T15:41:23.764Z,33.58
2023-01-22T15:46:29.151Z,38.95
2023-01-22T15:51:32.842Z,43.75
2023-01-22T15:56:39.471Z,34.53
2023-01-22T16:01:43.186Z,36.70
2023-01-22T16:06:46.823Z,41.78
2023-01-22T16:11:52.679Z,48.03
2023-01-22T16:16:56.689Z,41.75
2023-01-22T16:22:00.339Z,42.83
2023-01-22T16:27:05.239Z,40.10
2023-01-22T16:37:11.635Z,42.05
2023-01-22T16:42:16.455Z,43.20
2023-01-22T16:47:20.479Z,47.55
2023-01-22T16:52:23.799Z,51.53
2023-01-22T16:57:28.574Z,47.40
2023-01-22T17:07:35.113Z,54.70
2023-01-22T17:12:39.847Z,54.42
2023-01-22T17:17:43.159Z,51.13
2023-01-22T17:22:46.554Z,49.55
2023-01-22T17:27:51.438Z,59.30
2023-01-22T17:37:57.993Z,56.80
2023-01-22T17:43:03.108Z,53.42
2023-01-22T17:48:07.011Z,54.05
2023-01-22T17:53:10.822Z,52.67
2023-01-22T17:58:15.679Z,54.40
2023-01-22T18:08:22.140Z,45.67
2023-01-22T18:13:27.730Z,47.38
2023-01-22T18:18:31.058Z,50.00
2023-01-22T18:23:34.554Z,55.75
2023-01-22T18:28:39.686Z,50.20
2023-01-22T18:33:45.144Z,48.15
2023-01-22T18:38:48.988Z,49.33
2023-01-22T18:43:56.390Z,48.25
2023-01-22T18:49:02.177Z,45.40
2023-01-22T18:54:06.921Z,47.60
2023-01-22T18:59:13.328Z,45.70
2023-01-22T19:04:20.496Z,42.47
2023-01-22T19:09:27.159Z,41.90
2023-01-22T19:14:31.879Z,39.78
2023-01-22T19:19:35.177Z,40.88
2023-01-22T19:24:38.624Z,33.10
2023-01-22T19:29:43.525Z,39.13
2023-01-22T19:39:50.146Z,34.47
2023-01-22T19:44:55.037Z,33.65
2023-01-22T19:55:03.184Z,41.13
2023-01-22T20:00:12.970Z,40.78
2023-01-22T20:05:18.026Z,41.83
2023-01-22T20:10:23.398Z,37.60
2023-01-22T20:15:28.485Z,36.67
2023-01-22T20:20:35.178Z,33.10
2023-01-22T20:25:39.819Z,33.25
2023-01-22T20:30:45.553Z,33.88
2023-01-22T20:35:48.940Z,36.15
2023-01-22T20:40:52.499Z,34.30
2023-01-22T20:46:03.207Z,31.17
2023-01-22T20:51:15.184Z,32.03
2023-01-22T20:56:22.751Z,29.15
2023-01-22T21:01:28.372Z,26.38
2023-01-22T21:06:34.039Z,32.22
2023-01-22T21:11:40.524Z,28.42
2023-01-22T21:16:45.916Z,29.73
2023-01-22T21:21:49.489Z,27.40
2023-01-22T21:26:52.889Z,26.10
2023-01-22T21:32:00.830Z,31.27
2023-01-22T21:37:04.297Z,30.23
2023-01-22T21:42:26.666Z,30.13
2023-01-22T21:47:31.762Z,28.38
2023-01-22T21:52:35.373Z,32.33
2023-01-22T21:57:39.284Z,28.80
2023-01-22T22:02:44.120Z,25.97
2023-01-22T22:07:47.567Z,27.90
2023-01-22T22:12:54.023Z,23.67
2023-01-22T22:17:59.475Z,26.92
2023-01-22T22:23:02.801Z,27.92
2023-01-22T22:28:06.365Z,25.17
2023-01-22T22:33:11.095Z,29.65
2023-01-22T22:43:17.872Z,27.23
2023-01-22T22:48:23.012Z,25.15
2023-01-22T22:53:26.806Z,26.63
2023-01-22T22:58:30.140Z,26.02
2023-01-22T23:03:38.736Z,23.23
2023-01-22T23:08:43.779Z,30.98
2023-01-22T23:13:49.628Z,22.95
2023-01-22T23:18:54.497Z,23.15
2023-01-22T23:29:03.442Z,26.42
2023-01-22T23:34:10.126Z,22.40
2023-01-22T23:39:15.040Z,24.10
2023-01-22T23:49:23.314Z,23.10
2023-01-22T23:59:29.862Z,21.20
